sensor_id;sensor_type;location;lat;lon;timestamp;P1;durP1;ratioP1;P2;durP2;ratioP2
33074;SDS011;19433;51.292;6.868;2023-07-28T00:00:01;2.00;;;1.90;;
33074;SDS011;19433;51.292;6.868;2023-07-28T00:02:27;2.67;;;2.20;;
33074;SDS011;19433;51.292;6.868;2023-07-28T00:04:53;2.07;;;1.97;;
33074;SDS011;19433;51.292;6.868;2023-07-28T00:07:18;1.60;;;1.50;;
33074;SDS011;19433;51.292;6.868;2023-07-28T00:09:43;3.03;;;1.90;;
33074;SDS011;19433;51.292;6.868;2023-07-28T00:12:08;3.10;;;1.93;;
33074;SDS011;19433;51.292;6.868;2023-07-28T00:14:34;2.60;;;1.77;;
33074;SDS011;19433;51.292;6.868;2023-07-28T00:16:59;2.00;;;1.90;;
33074;SDS011;19433;51.292;6.868;2023-07-28T00:19:24;1.87;;;1.77;;
33074;SDS011;19433;51.292;6.868;2023-07-28T00:21:50;2.10;;;1.67;;
33074;SDS011;19433;51.292;6.868;2023-07-28T00:24:16;2.37;;;2.17;;
33074;SDS011;19433;51.292;6.868;2023-07-28T00:26:42;4.70;;;2.23;;
33074;SDS011;19433;51.292;6.868;2023-07-28T00:29:08;2.03;;;1.93;;
33074;SDS011;19433;51.292;6.868;2023-07-28T00:31:33;2.60;;;2.40;;
33074;SDS011;19433;51.292;6.868;2023-07-28T00:33:59;2.63;;;2.43;;
33074;SDS011;19433;51.292;6.868;2023-07-28T00:36:24;1.80;;;1.70;;
33074;SDS011;19433;51.292;6.868;2023-07-28T00:38:50;2.13;;;2.00;;
33074;SDS011;19433;51.292;6.868;2023-07-28T00:41:15;4.50;;;2.10;;
33074;SDS011;19433;51.292;6.868;2023-07-28T00:43:40;2.03;;;1.83;;
33074;SDS011;19433;51.292;6.868;2023-07-28T00:46:06;2.27;;;2.07;;
33074;SDS011;19433;51.292;6.868;2023-07-28T00:48:31;1.80;;;1.70;;
33074;SDS011;19433;51.292;6.868;2023-07-28T00:50:57;1.70;;;1.60;;
33074;SDS011;19433;51.292;6.868;2023-07-28T00:53:23;2.40;;;2.10;;
33074;SDS011;19433;51.292;6.868;2023-07-28T00:55:49;1.90;;;1.80;;
33074;SDS011;19433;51.292;6.868;2023-07-28T00:58:14;3.23;;;2.30;;
33074;SDS011;19433;51.292;6.868;2023-07-28T01:00:39;2.23;;;2.03;;
33074;SDS011;19433;51.292;6.868;2023-07-28T01:03:05;1.87;;;1.77;;
33074;SDS011;19433;51.292;6.868;2023-07-28T01:05:33;2.93;;;1.83;;
33074;SDS011;19433;51.292;6.868;2023-07-28T01:08:11;2.50;;;2.17;;
33074;SDS011;19433;51.292;6.868;2023-07-28T01:10:44;3.03;;;2.73;;
33074;SDS011;19433;51.292;6.868;2023-07-28T01:13:09;3.40;;;3.10;;
33074;SDS011;19433;51.292;6.868;2023-07-28T01:15:35;4.13;;;3.83;;
33074;SDS011;19433;51.292;6.868;2023-07-28T01:18:00;3.90;;;3.30;;
33074;SDS011;19433;51.292;6.868;2023-07-28T01:20:26;4.20;;;3.90;;
33074;SDS011;19433;51.292;6.868;2023-07-28T01:28:22;4.50;;;4.20;;
33074;SDS011;19433;51.292;6.868;2023-07-28T01:30:47;3.30;;;3.00;;
33074;SDS011;19433;51.292;6.868;2023-07-28T01:33:13;3.67;;;3.37;;
33074;SDS011;19433;51.292;6.868;2023-07-28T01:35:38;4.20;;;3.13;;
33074;SDS011;19433;51.292;6.868;2023-07-28T01:38:04;3.10;;;2.90;;
33074;SDS011;19433;51.292;6.868;2023-07-28T01:40:29;4.03;;;3.73;;
33074;SDS011;19433;51.292;6.868;2023-07-28T01:42:55;3.70;;;3.40;;
33074;SDS011;19433;51.292;6.868;2023-07-28T01:45:20;3.90;;;3.60;;
33074;SDS011;19433;51.292;6.868;2023-07-28T01:47:45;4.13;;;3.70;;
33074;SDS011;19433;51.292;6.868;2023-07-28T01:50:11;3.70;;;3.40;;
33074;SDS011;19433;51.292;6.868;2023-07-28T01:52:36;3.33;;;3.03;;
33074;SDS011;19433;51.292;6.868;2023-07-28T01:55:01;3.87;;;3.57;;
33074;SDS011;19433;51.292;6.868;2023-07-28T01:57:27;4.30;;;4.00;;
33074;SDS011;19433;51.292;6.868;2023-07-28T01:59:53;6.80;;;4.00;;
33074;SDS011;19433;51.292;6.868;2023-07-28T02:02:19;3.60;;;3.30;;
33074;SDS011;19433;51.292;6.868;2023-07-28T02:04:44;4.00;;;3.50;;
33074;SDS011;19433;51.292;6.868;2023-07-28T02:07:10;3.33;;;3.00;;
33074;SDS011;19433;51.292;6.868;2023-07-28T02:09:35;4.20;;;3.90;;
33074;SDS011;19433;51.292;6.868;2023-07-28T02:12:00;3.90;;;3.60;;
33074;SDS011;19433;51.292;6.868;2023-07-28T02:14:25;4.30;;;3.93;;
33074;SDS011;19433;51.292;6.868;2023-07-28T02:16:51;3.20;;;2.93;;
33074;SDS011;19433;51.292;6.868;2023-07-28T02:19:16;3.00;;;2.80;;
33074;SDS011;19433;51.292;6.868;2023-07-28T02:21:41;3.00;;;2.80;;
33074;SDS011;19433;51.292;6.868;2023-07-28T02:24:07;3.33;;;3.03;;
33074;SDS011;19433;51.292;6.868;2023-07-28T02:26:32;2.40;;;2.30;;
33074;SDS011;19433;51.292;6.868;2023-07-28T02:28:57;3.30;;;2.50;;
33074;SDS011;19433;51.292;6.868;2023-07-28T02:31:23;2.37;;;2.27;;
33074;SDS011;19433;51.292;6.868;2023-07-28T02:33:48;1.80;;;1.70;;
33074;SDS011;19433;51.292;6.868;2023-07-28T02:36:13;1.43;;;1.27;;
33074;SDS011;19433;51.292;6.868;2023-07-28T02:38:38;2.00;;;1.90;;
33074;SDS011;19433;51.292;6.868;2023-07-28T02:41:04;1.43;;;1.33;;
33074;SDS011;19433;51.292;6.868;2023-07-28T02:43:29;1.50;;;1.40;;
33074;SDS011;19433;51.292;6.868;2023-07-28T02:45:55;1.73;;;1.63;;
33074;SDS011;19433;51.292;6.868;2023-07-28T02:48:22;2.23;;;2.13;;
33074;SDS011;19433;51.292;6.868;2023-07-28T02:50:49;1.83;;;1.73;;
33074;SDS011;19433;51.292;6.868;2023-07-28T02:53:15;1.50;;;1.40;;
33074;SDS011;19433;51.292;6.868;2023-07-28T02:55:43;2.00;;;1.90;;
33074;SDS011;19433;51.292;6.868;2023-07-28T02:58:10;3.00;;;1.17;;
33074;SDS011;19433;51.292;6.868;2023-07-28T03:00:42;1.60;;;1.50;;
33074;SDS011;19433;51.292;6.868;2023-07-28T03:03:09;1.60;;;1.50;;
33074;SDS011;19433;51.292;6.868;2023-07-28T03:05:36;1.70;;;1.60;;
33074;SDS011;19433;51.292;6.868;2023-07-28T03:08:01;2.27;;;1.90;;
33074;SDS011;19433;51.292;6.868;2023-07-28T03:10:27;1.57;;;1.40;;
33074;SDS011;19433;51.292;6.868;2023-07-28T03:12:53;2.23;;;2.13;;
33074;SDS011;19433;51.292;6.868;2023-07-28T03:15:18;2.50;;;2.27;;
33074;SDS011;19433;51.292;6.868;2023-07-28T03:17:44;2.07;;;1.97;;
33074;SDS011;19433;51.292;6.868;2023-07-28T03:20:10;2.07;;;1.87;;
33074;SDS011;19433;51.292;6.868;2023-07-28T03:22:35;2.37;;;2.17;;
33074;SDS011;19433;51.292;6.868;2023-07-28T03:25:01;2.70;;;2.50;;
33074;SDS011;19433;51.292;6.868;2023-07-28T03:27:26;2.33;;;2.20;;
33074;SDS011;19433;51.292;6.868;2023-07-28T03:29:51;2.80;;;2.43;;
33074;SDS011;19433;51.292;6.868;2023-07-28T03:32:16;2.83;;;2.60;;
33074;SDS011;19433;51.292;6.868;2023-07-28T03:34:42;2.50;;;2.40;;
33074;SDS011;19433;51.292;6.868;2023-07-28T03:37:07;2.80;;;2.60;;
33074;SDS011;19433;51.292;6.868;2023-07-28T03:39:32;3.90;;;2.63;;
33074;SDS011;19433;51.292;6.868;2023-07-28T03:41:58;3.03;;;2.83;;
33074;SDS011;19433;51.292;6.868;2023-07-28T03:44:23;2.80;;;2.60;;
33074;SDS011;19433;51.292;6.868;2023-07-28T03:46:49;3.10;;;2.90;;
33074;SDS011;19433;51.292;6.868;2023-07-28T03:49:14;3.77;;;3.37;;
33074;SDS011;19433;51.292;6.868;2023-07-28T03:51:39;2.77;;;2.57;;
33074;SDS011;19433;51.292;6.868;2023-07-28T03:54:04;3.30;;;3.10;;
33074;SDS011;19433;51.292;6.868;2023-07-28T03:56:30;2.90;;;2.70;;
33074;SDS011;19433;51.292;6.868;2023-07-28T03:58:55;4.63;;;3.63;;
33074;SDS011;19433;51.292;6.868;2023-07-28T04:01:21;3.33;;;3.03;;
33074;SDS011;19433;51.292;6.868;2023-07-28T04:03:47;2.97;;;2.77;;
33074;SDS011;19433;51.292;6.868;2023-07-28T04:06:12;2.67;;;2.37;;
33074;SDS011;19433;51.292;6.868;2023-07-28T04:08:38;2.50;;;2.30;;
33074;SDS011;19433;51.292;6.868;2023-07-28T04:11:04;2.47;;;2.27;;
33074;SDS011;19433;51.292;6.868;2023-07-28T04:13:30;3.47;;;3.23;;
33074;SDS011;19433;51.292;6.868;2023-07-28T04:15:55;3.03;;;2.33;;
33074;SDS011;19433;51.292;6.868;2023-07-28T04:18:20;2.67;;;2.47;;
33074;SDS011;19433;51.292;6.868;2023-07-28T04:20:45;5.23;;;2.57;;
33074;SDS011;19433;51.292;6.868;2023-07-28T04:23:11;2.70;;;2.30;;
33074;SDS011;19433;51.292;6.868;2023-07-28T04:25:37;2.47;;;2.27;;
33074;SDS011;19433;51.292;6.868;2023-07-28T04:28:02;2.80;;;2.60;;
33074;SDS011;19433;51.292;6.868;2023-07-28T04:30:27;4.17;;;2.20;;
33074;SDS011;19433;51.292;6.868;2023-07-28T04:32:53;3.20;;;2.30;;
33074;SDS011;19433;51.292;6.868;2023-07-28T04:35:18;2.30;;;2.20;;
33074;SDS011;19433;51.292;6.868;2023-07-28T04:37:43;2.57;;;2.37;;
33074;SDS011;19433;51.292;6.868;2023-07-28T04:40:09;2.37;;;2.17;;
33074;SDS011;19433;51.292;6.868;2023-07-28T04:42:35;1.83;;;1.73;;
33074;SDS011;19433;51.292;6.868;2023-07-28T04:45:01;2.17;;;2.07;;
33074;SDS011;19433;51.292;6.868;2023-07-28T04:47:26;2.20;;;2.10;;
33074;SDS011;19433;51.292;6.868;2023-07-28T04:49:52;2.17;;;2.07;;
33074;SDS011;19433;51.292;6.868;2023-07-28T04:52:17;4.30;;;1.90;;
33074;SDS011;19433;51.292;6.868;2023-07-28T04:54:42;2.10;;;2.00;;
33074;SDS011;19433;51.292;6.868;2023-07-28T04:57:07;2.10;;;1.90;;
33074;SDS011;19433;51.292;6.868;2023-07-28T04:59:33;2.20;;;2.10;;
33074;SDS011;19433;51.292;6.868;2023-07-28T05:01:58;2.33;;;2.23;;
33074;SDS011;19433;51.292;6.868;2023-07-28T05:04:23;2.03;;;1.93;;
33074;SDS011;19433;51.292;6.868;2023-07-28T05:06:48;2.00;;;1.90;;
33074;SDS011;19433;51.292;6.868;2023-07-28T05:09:14;2.67;;;1.90;;
33074;SDS011;19433;51.292;6.868;2023-07-28T05:11:39;1.87;;;1.70;;
33074;SDS011;19433;51.292;6.868;2023-07-28T05:14:04;1.80;;;1.70;;
33074;SDS011;19433;51.292;6.868;2023-07-28T05:16:31;2.00;;;1.80;;
33074;SDS011;19433;51.292;6.868;2023-07-28T05:18:57;1.97;;;1.80;;
33074;SDS011;19433;51.292;6.868;2023-07-28T05:21:22;1.97;;;1.87;;
33074;SDS011;19433;51.292;6.868;2023-07-28T05:23:47;2.37;;;2.27;;
33074;SDS011;19433;51.292;6.868;2023-07-28T05:26:12;2.43;;;2.17;;
33074;SDS011;19433;51.292;6.868;2023-07-28T05:28:38;5.73;;;2.20;;
33074;SDS011;19433;51.292;6.868;2023-07-28T05:31:04;2.43;;;2.33;;
33074;SDS011;19433;51.292;6.868;2023-07-28T05:33:30;3.63;;;1.77;;
33074;SDS011;19433;51.292;6.868;2023-07-28T05:35:59;1.87;;;1.77;;
33074;SDS011;19433;51.292;6.868;2023-07-28T05:38:30;3.60;;;2.97;;
33074;SDS011;19433;51.292;6.868;2023-07-28T05:40:58;2.17;;;1.97;;
33074;SDS011;19433;51.292;6.868;2023-07-28T05:43:28;2.17;;;2.07;;
33074;SDS011;19433;51.292;6.868;2023-07-28T05:45:54;2.17;;;1.97;;
33074;SDS011;19433;51.292;6.868;2023-07-28T05:48:21;2.60;;;2.40;;
33074;SDS011;19433;51.292;6.868;2023-07-28T05:50:46;2.10;;;2.00;;
33074;SDS011;19433;51.292;6.868;2023-07-28T05:53:11;2.40;;;2.20;;
33074;SDS011;19433;51.292;6.868;2023-07-28T05:55:37;2.47;;;2.13;;
33074;SDS011;19433;51.292;6.868;2023-07-28T05:58:02;2.13;;;2.03;;
33074;SDS011;19433;51.292;6.868;2023-07-28T06:00:27;3.80;;;2.60;;
33074;SDS011;19433;51.292;6.868;2023-07-28T06:02:53;1.70;;;1.57;;
33074;SDS011;19433;51.292;6.868;2023-07-28T06:05:18;2.93;;;2.30;;
33074;SDS011;19433;51.292;6.868;2023-07-28T06:07:43;2.70;;;2.30;;
33074;SDS011;19433;51.292;6.868;2023-07-28T06:10:09;2.40;;;2.20;;
33074;SDS011;19433;51.292;6.868;2023-07-28T06:12:34;3.10;;;2.27;;
33074;SDS011;19433;51.292;6.868;2023-07-28T06:15:01;2.70;;;2.50;;
33074;SDS011;19433;51.292;6.868;2023-07-28T06:17:26;2.10;;;2.00;;
33074;SDS011;19433;51.292;6.868;2023-07-28T06:19:53;2.60;;;2.40;;
33074;SDS011;19433;51.292;6.868;2023-07-28T06:22:18;3.60;;;2.43;;
33074;SDS011;19433;51.292;6.868;2023-07-28T06:24:44;2.90;;;2.60;;
33074;SDS011;19433;51.292;6.868;2023-07-28T06:27:09;2.80;;;2.50;;
33074;SDS011;19433;51.292;6.868;2023-07-28T06:29:35;3.00;;;2.70;;
33074;SDS011;19433;51.292;6.868;2023-07-28T06:32:00;2.90;;;2.70;;
33074;SDS011;19433;51.292;6.868;2023-07-28T06:34:26;2.70;;;2.50;;
33074;SDS011;19433;51.292;6.868;2023-07-28T06:36:51;2.80;;;2.60;;
33074;SDS011;19433;51.292;6.868;2023-07-28T06:39:17;3.07;;;2.40;;
33074;SDS011;19433;51.292;6.868;2023-07-28T06:41:42;2.80;;;2.60;;
33074;SDS011;19433;51.292;6.868;2023-07-28T06:44:08;5.83;;;2.97;;
33074;SDS011;19433;51.292;6.868;2023-07-28T06:46:33;2.50;;;2.20;;
33074;SDS011;19433;51.292;6.868;2023-07-28T06:48:59;3.33;;;2.53;;
33074;SDS011;19433;51.292;6.868;2023-07-28T06:51:24;2.30;;;2.10;;
33074;SDS011;19433;51.292;6.868;2023-07-28T06:53:49;2.63;;;2.43;;
33074;SDS011;19433;51.292;6.868;2023-07-28T06:56:15;3.30;;;2.80;;
33074;SDS011;19433;51.292;6.868;2023-07-28T06:58:40;2.40;;;2.20;;
33074;SDS011;19433;51.292;6.868;2023-07-28T07:01:06;2.90;;;2.30;;
33074;SDS011;19433;51.292;6.868;2023-07-28T07:03:33;3.57;;;1.80;;
33074;SDS011;19433;51.292;6.868;2023-07-28T07:05:59;2.63;;;1.87;;
33074;SDS011;19433;51.292;6.868;2023-07-28T07:08:24;2.23;;;1.90;;
33074;SDS011;19433;51.292;6.868;2023-07-28T07:10:50;2.10;;;1.90;;
33074;SDS011;19433;51.292;6.868;2023-07-28T07:13:15;2.30;;;1.90;;
33074;SDS011;19433;51.292;6.868;2023-07-28T07:15:41;2.57;;;2.27;;
33074;SDS011;19433;51.292;6.868;2023-07-28T07:18:07;2.93;;;2.10;;
33074;SDS011;19433;51.292;6.868;2023-07-28T07:20:36;2.90;;;2.20;;
33074;SDS011;19433;51.292;6.868;2023-07-28T07:23:02;2.57;;;2.37;;
33074;SDS011;19433;51.292;6.868;2023-07-28T07:25:28;3.13;;;2.60;;
33074;SDS011;19433;51.292;6.868;2023-07-28T07:27:54;3.93;;;2.30;;
33074;SDS011;19433;51.292;6.868;2023-07-28T07:30:19;3.17;;;2.13;;
33074;SDS011;19433;51.292;6.868;2023-07-28T07:32:44;2.50;;;2.30;;
33074;SDS011;19433;51.292;6.868;2023-07-28T07:35:09;2.77;;;2.57;;
33074;SDS011;19433;51.292;6.868;2023-07-28T07:37:35;2.30;;;1.80;;
33074;SDS011;19433;51.292;6.868;2023-07-28T07:40:00;2.07;;;1.90;;
33074;SDS011;19433;51.292;6.868;2023-07-28T07:42:26;1.73;;;1.63;;
33074;SDS011;19433;51.292;6.868;2023-07-28T07:44:52;2.40;;;2.20;;
33074;SDS011;19433;51.292;6.868;2023-07-28T07:47:17;2.30;;;2.20;;
33074;SDS011;19433;51.292;6.868;2023-07-28T07:49:43;2.00;;;1.80;;
33074;SDS011;19433;51.292;6.868;2023-07-28T07:52:08;2.90;;;1.97;;
33074;SDS011;19433;51.292;6.868;2023-07-28T07:54:34;2.03;;;1.93;;
33074;SDS011;19433;51.292;6.868;2023-07-28T07:57:00;2.10;;;1.90;;
33074;SDS011;19433;51.292;6.868;2023-07-28T07:59:25;1.40;;;1.30;;
33074;SDS011;19433;51.292;6.868;2023-07-28T08:01:53;1.53;;;1.20;;
33074;SDS011;19433;51.292;6.868;2023-07-28T08:04:18;1.80;;;1.70;;
33074;SDS011;19433;51.292;6.868;2023-07-28T08:06:43;2.27;;;1.73;;
33074;SDS011;19433;51.292;6.868;2023-07-28T08:09:09;2.60;;;2.13;;
33074;SDS011;19433;51.292;6.868;2023-07-28T08:11:35;1.60;;;1.50;;
33074;SDS011;19433;51.292;6.868;2023-07-28T08:14:00;2.60;;;1.70;;
33074;SDS011;19433;51.292;6.868;2023-07-28T08:16:25;1.90;;;1.77;;
33074;SDS011;19433;51.292;6.868;2023-07-28T08:18:50;1.70;;;1.60;;
33074;SDS011;19433;51.292;6.868;2023-07-28T08:21:16;1.93;;;1.83;;
33074;SDS011;19433;51.292;6.868;2023-07-28T08:23:41;1.90;;;1.80;;
33074;SDS011;19433;51.292;6.868;2023-07-28T08:26:06;2.00;;;1.90;;
33074;SDS011;19433;51.292;6.868;2023-07-28T08:28:32;2.33;;;2.13;;
33074;SDS011;19433;51.292;6.868;2023-07-28T08:30:57;2.13;;;2.00;;
33074;SDS011;19433;51.292;6.868;2023-07-28T08:33:24;2.33;;;2.17;;
33074;SDS011;19433;51.292;6.868;2023-07-28T08:35:49;2.10;;;2.00;;
33074;SDS011;19433;51.292;6.868;2023-07-28T08:38:15;2.77;;;2.50;;
33074;SDS011;19433;51.292;6.868;2023-07-28T08:40:40;2.70;;;2.50;;
33074;SDS011;19433;51.292;6.868;2023-07-28T08:43:05;5.50;;;2.97;;
33074;SDS011;19433;51.292;6.868;2023-07-28T08:45:31;2.87;;;2.67;;
33074;SDS011;19433;51.292;6.868;2023-07-28T08:47:56;4.33;;;3.20;;
33074;SDS011;19433;51.292;6.868;2023-07-28T08:50:22;4.13;;;3.07;;
33074;SDS011;19433;51.292;6.868;2023-07-28T08:52:47;4.00;;;3.00;;
33074;SDS011;19433;51.292;6.868;2023-07-28T08:55:15;3.50;;;3.07;;
33074;SDS011;19433;51.292;6.868;2023-07-28T08:57:40;2.80;;;2.60;;
33074;SDS011;19433;51.292;6.868;2023-07-28T09:00:06;2.70;;;2.50;;
33074;SDS011;19433;51.292;6.868;2023-07-28T09:02:39;2.90;;;2.70;;
33074;SDS011;19433;51.292;6.868;2023-07-28T09:05:05;4.33;;;3.13;;
33074;SDS011;19433;51.292;6.868;2023-07-28T09:07:37;2.80;;;2.60;;
33074;SDS011;19433;51.292;6.868;2023-07-28T09:10:02;6.03;;;2.77;;
33074;SDS011;19433;51.292;6.868;2023-07-28T09:12:31;4.17;;;2.97;;
33074;SDS011;19433;51.292;6.868;2023-07-28T09:14:57;3.10;;;2.90;;
33074;SDS011;19433;51.292;6.868;2023-07-28T09:17:22;3.77;;;2.80;;
33074;SDS011;19433;51.292;6.868;2023-07-28T09:19:51;3.13;;;2.90;;
33074;SDS011;19433;51.292;6.868;2023-07-28T09:22:20;3.80;;;2.30;;
33074;SDS011;19433;51.292;6.868;2023-07-28T09:24:46;2.90;;;2.70;;
33074;SDS011;19433;51.292;6.868;2023-07-28T09:27:19;2.13;;;2.00;;
33074;SDS011;19433;51.292;6.868;2023-07-28T09:29:48;2.50;;;2.30;;
33074;SDS011;19433;51.292;6.868;2023-07-28T09:32:14;2.70;;;2.47;;
33074;SDS011;19433;51.292;6.868;2023-07-28T09:34:40;5.50;;;3.00;;
33074;SDS011;19433;51.292;6.868;2023-07-28T09:37:05;2.33;;;2.23;;
33074;SDS011;19433;51.292;6.868;2023-07-28T09:39:34;1.93;;;1.83;;
33074;SDS011;19433;51.292;6.868;2023-07-28T09:42:01;2.43;;;2.33;;
33074;SDS011;19433;51.292;6.868;2023-07-28T09:44:27;2.77;;;2.50;;
33074;SDS011;19433;51.292;6.868;2023-07-28T09:46:53;2.53;;;2.40;;
33074;SDS011;19433;51.292;6.868;2023-07-28T09:49:21;2.60;;;2.13;;
33074;SDS011;19433;51.292;6.868;2023-07-28T09:51:53;2.60;;;2.40;;
33074;SDS011;19433;51.292;6.868;2023-07-28T09:54:27;2.67;;;2.47;;
33074;SDS011;19433;51.292;6.868;2023-07-28T09:56:58;1.97;;;1.87;;
33074;SDS011;19433;51.292;6.868;2023-07-28T09:59:28;2.10;;;1.90;;
33074;SDS011;19433;51.292;6.868;2023-07-28T10:02:00;1.90;;;1.80;;
33074;SDS011;19433;51.292;6.868;2023-07-28T10:04:26;2.63;;;2.17;;
33074;SDS011;19433;51.292;6.868;2023-07-28T10:06:52;4.37;;;1.83;;
33074;SDS011;19433;51.292;6.868;2023-07-28T10:09:24;2.70;;;2.20;;
33074;SDS011;19433;51.292;6.868;2023-07-28T10:11:51;1.90;;;1.80;;
33074;SDS011;19433;51.292;6.868;2023-07-28T10:14:35;2.63;;;2.43;;
33074;SDS011;19433;51.292;6.868;2023-07-28T10:17:05;1.70;;;1.60;;
33074;SDS011;19433;51.292;6.868;2023-07-28T10:19:34;1.80;;;1.70;;
33074;SDS011;19433;51.292;6.868;2023-07-28T10:22:01;2.67;;;1.60;;
33074;SDS011;19433;51.292;6.868;2023-07-28T10:25:04;1.60;;;1.50;;
33074;SDS011;19433;51.292;6.868;2023-07-28T10:30:00;1.70;;;1.60;;
33074;SDS011;19433;51.292;6.868;2023-07-28T10:32:34;1.50;;;1.40;;
33074;SDS011;19433;51.292;6.868;2023-07-28T10:35:06;1.50;;;1.40;;
33074;SDS011;19433;51.292;6.868;2023-07-28T10:37:32;1.67;;;1.57;;
33074;SDS011;19433;51.292;6.868;2023-07-28T10:40:21;1.80;;;1.70;;
33074;SDS011;19433;51.292;6.868;2023-07-28T10:42:47;1.63;;;1.53;;
33074;SDS011;19433;51.292;6.868;2023-07-28T10:45:12;1.70;;;1.60;;
33074;SDS011;19433;51.292;6.868;2023-07-28T10:47:38;2.83;;;1.77;;
33074;SDS011;19433;51.292;6.868;2023-07-28T10:50:04;1.47;;;1.37;;
33074;SDS011;19433;51.292;6.868;2023-07-28T10:52:29;1.57;;;1.47;;
33074;SDS011;19433;51.292;6.868;2023-07-28T10:54:55;1.67;;;1.57;;
33074;SDS011;19433;51.292;6.868;2023-07-28T10:57:23;1.10;;;1.10;;
33074;SDS011;19433;51.292;6.868;2023-07-28T10:59:51;1.47;;;1.20;;
33074;SDS011;19433;51.292;6.868;2023-07-28T11:02:16;2.30;;;1.37;;
33074;SDS011;19433;51.292;6.868;2023-07-28T11:04:45;1.67;;;1.57;;
33074;SDS011;19433;51.292;6.868;2023-07-28T11:07:14;1.30;;;1.23;;
33074;SDS011;19433;51.292;6.868;2023-07-28T11:09:39;1.67;;;1.17;;
33074;SDS011;19433;51.292;6.868;2023-07-28T11:12:08;1.57;;;1.53;;
33074;SDS011;19433;51.292;6.868;2023-07-28T11:14:34;1.37;;;1.10;;
33074;SDS011;19433;51.292;6.868;2023-07-28T11:17:01;1.80;;;1.27;;
33074;SDS011;19433;51.292;6.868;2023-07-28T11:19:26;0.90;;;0.90;;
33074;SDS011;19433;51.292;6.868;2023-07-28T11:21:52;1.00;;;1.00;;
33074;SDS011;19433;51.292;6.868;2023-07-28T11:24:19;1.43;;;1.20;;
33074;SDS011;19433;51.292;6.868;2023-07-28T11:26:45;2.00;;;1.23;;
33074;SDS011;19433;51.292;6.868;2023-07-28T11:29:11;1.60;;;1.10;;
33074;SDS011;19433;51.292;6.868;2023-07-28T11:31:36;1.00;;;0.90;;
33074;SDS011;19433;51.292;6.868;2023-07-28T11:34:02;0.80;;;0.80;;
33074;SDS011;19433;51.292;6.868;2023-07-28T11:36:28;0.93;;;0.93;;
33074;SDS011;19433;51.292;6.868;2023-07-28T11:38:56;0.90;;;0.90;;
33074;SDS011;19433;51.292;6.868;2023-07-28T11:41:23;1.27;;;1.27;;
33074;SDS011;19433;51.292;6.868;2023-07-28T11:43:50;0.90;;;0.90;;
33074;SDS011;19433;51.292;6.868;2023-07-28T11:49:20;1.53;;;1.43;;
33074;SDS011;19433;51.292;6.868;2023-07-28T11:51:50;1.83;;;0.90;;
33074;SDS011;19433;51.292;6.868;2023-07-28T11:54:17;0.87;;;0.77;;
33074;SDS011;19433;51.292;6.868;2023-07-28T11:56:46;1.13;;;1.03;;
33074;SDS011;19433;51.292;6.868;2023-07-28T11:59:16;0.73;;;0.73;;
33074;SDS011;19433;51.292;6.868;2023-07-28T12:01:59;1.33;;;1.23;;
33074;SDS011;19433;51.292;6.868;2023-07-28T12:04:28;1.10;;;1.00;;
33074;SDS011;19433;51.292;6.868;2023-07-28T12:07:14;1.00;;;1.00;;
33074;SDS011;19433;51.292;6.868;2023-07-28T12:12:28;0.80;;;0.80;;
33074;SDS011;19433;51.292;6.868;2023-07-28T12:14:55;0.97;;;0.93;;
33074;SDS011;19433;51.292;6.868;2023-07-28T12:17:24;0.70;;;0.70;;
33074;SDS011;19433;51.292;6.868;2023-07-28T12:19:56;0.60;;;0.60;;
33074;SDS011;19433;51.292;6.868;2023-07-28T12:22:26;0.87;;;0.87;;
33074;SDS011;19433;51.292;6.868;2023-07-28T12:24:52;1.47;;;0.80;;
33074;SDS011;19433;51.292;6.868;2023-07-28T12:27:18;1.23;;;0.80;;
33074;SDS011;19433;51.292;6.868;2023-07-28T12:29:45;1.00;;;0.83;;
33074;SDS011;19433;51.292;6.868;2023-07-28T12:32:11;0.60;;;0.60;;
33074;SDS011;19433;51.292;6.868;2023-07-28T12:34:36;0.83;;;0.83;;
33074;SDS011;19433;51.292;6.868;2023-07-28T12:37:01;1.47;;;0.87;;
33074;SDS011;19433;51.292;6.868;2023-07-28T12:39:26;0.97;;;0.70;;
33074;SDS011;19433;51.292;6.868;2023-07-28T12:41:52;1.17;;;0.67;;
33074;SDS011;19433;51.292;6.868;2023-07-28T12:44:19;1.20;;;1.13;;
33074;SDS011;19433;51.292;6.868;2023-07-28T12:46:44;0.80;;;0.80;;
33074;SDS011;19433;51.292;6.868;2023-07-28T12:49:10;0.70;;;0.70;;
33074;SDS011;19433;51.292;6.868;2023-07-28T12:51:36;1.07;;;0.80;;
33074;SDS011;19433;51.292;6.868;2023-07-28T12:54:02;1.03;;;0.80;;
33074;SDS011;19433;51.292;6.868;2023-07-28T12:56:27;0.50;;;0.50;;
33074;SDS011;19433;51.292;6.868;2023-07-28T12:58:53;0.87;;;0.60;;
33074;SDS011;19433;51.292;6.868;2023-07-28T13:01:18;1.00;;;0.83;;
33074;SDS011;19433;51.292;6.868;2023-07-28T13:03:43;0.70;;;0.70;;
33074;SDS011;19433;51.292;6.868;2023-07-28T13:06:08;4.57;;;0.80;;
33074;SDS011;19433;51.292;6.868;2023-07-28T13:08:34;0.60;;;0.60;;
33074;SDS011;19433;51.292;6.868;2023-07-28T13:10:59;0.90;;;0.90;;
33074;SDS011;19433;51.292;6.868;2023-07-28T13:13:24;0.57;;;0.57;;
33074;SDS011;19433;51.292;6.868;2023-07-28T13:15:50;0.50;;;0.50;;
33074;SDS011;19433;51.292;6.868;2023-07-28T13:18:15;0.70;;;0.70;;
33074;SDS011;19433;51.292;6.868;2023-07-28T13:20:40;4.63;;;0.90;;
33074;SDS011;19433;51.292;6.868;2023-07-28T13:23:06;1.00;;;0.60;;
33074;SDS011;19433;51.292;6.868;2023-07-28T13:25:31;0.93;;;0.70;;
33074;SDS011;19433;51.292;6.868;2023-07-28T13:27:56;0.80;;;0.80;;
33074;SDS011;19433;51.292;6.868;2023-07-28T13:30:22;0.80;;;0.80;;
33074;SDS011;19433;51.292;6.868;2023-07-28T13:32:47;1.00;;;1.00;;
33074;SDS011;19433;51.292;6.868;2023-07-28T13:35:12;1.10;;;0.90;;
33074;SDS011;19433;51.292;6.868;2023-07-28T13:37:38;1.27;;;1.20;;
33074;SDS011;19433;51.292;6.868;2023-07-28T13:40:03;0.90;;;0.90;;
33074;SDS011;19433;51.292;6.868;2023-07-28T13:42:30;0.80;;;0.80;;
33074;SDS011;19433;51.292;6.868;2023-07-28T13:44:55;0.50;;;0.50;;
33074;SDS011;19433;51.292;6.868;2023-07-28T13:47:20;0.70;;;0.70;;
33074;SDS011;19433;51.292;6.868;2023-07-28T13:49:45;0.93;;;0.83;;
33074;SDS011;19433;51.292;6.868;2023-07-28T13:52:11;0.60;;;0.60;;
33074;SDS011;19433;51.292;6.868;2023-07-28T13:54:36;11.83;;;2.63;;
33074;SDS011;19433;51.292;6.868;2023-07-28T13:57:01;0.60;;;0.60;;
33074;SDS011;19433;51.292;6.868;2023-07-28T13:59:27;1.37;;;0.60;;
33074;SDS011;19433;51.292;6.868;2023-07-28T14:01:52;0.53;;;0.53;;
33074;SDS011;19433;51.292;6.868;2023-07-28T14:04:17;0.77;;;0.60;;
33074;SDS011;19433;51.292;6.868;2023-07-28T14:06:43;0.50;;;0.50;;
33074;SDS011;19433;51.292;6.868;2023-07-28T14:09:08;0.50;;;0.50;;
33074;SDS011;19433;51.292;6.868;2023-07-28T14:11:34;0.60;;;0.60;;
33074;SDS011;19433;51.292;6.868;2023-07-28T14:14:00;0.60;;;0.60;;
33074;SDS011;19433;51.292;6.868;2023-07-28T14:16:26;0.60;;;0.60;;
33074;SDS011;19433;51.292;6.868;2023-07-28T14:18:51;0.50;;;0.50;;
33074;SDS011;19433;51.292;6.868;2023-07-28T14:21:16;0.70;;;0.63;;
33074;SDS011;19433;51.292;6.868;2023-07-28T14:23:41;0.70;;;0.70;;
33074;SDS011;19433;51.292;6.868;2023-07-28T14:26:07;0.70;;;0.70;;
33074;SDS011;19433;51.292;6.868;2023-07-28T14:28:32;0.60;;;0.60;;
33074;SDS011;19433;51.292;6.868;2023-07-28T14:30:57;0.80;;;0.80;;
33074;SDS011;19433;51.292;6.868;2023-07-28T14:33:22;0.80;;;0.80;;
33074;SDS011;19433;51.292;6.868;2023-07-28T14:35:48;0.83;;;0.70;;
33074;SDS011;19433;51.292;6.868;2023-07-28T14:38:15;0.80;;;0.80;;
33074;SDS011;19433;51.292;6.868;2023-07-28T14:40:41;1.33;;;0.90;;
33074;SDS011;19433;51.292;6.868;2023-07-28T14:43:09;1.13;;;1.07;;
33074;SDS011;19433;51.292;6.868;2023-07-28T14:45:34;1.37;;;1.00;;
33074;SDS011;19433;51.292;6.868;2023-07-28T14:48:00;1.27;;;1.20;;
33074;SDS011;19433;51.292;6.868;2023-07-28T14:50:26;0.90;;;0.90;;
33074;SDS011;19433;51.292;6.868;2023-07-28T14:52:52;2.60;;;1.00;;
33074;SDS011;19433;51.292;6.868;2023-07-28T14:55:18;0.90;;;0.90;;